»·PEaware :: HAWG11 KLSV-KLSV

HAWG11 :: KLSV-KLSV

FLIGHT INFORMATION

Flight Status: Arrived
Operator: Unknown
More flights by this operator :: More flights under this callsign
Pilot: Logan D. (20254)
Aircraft: FAIRCHILD A-10 THUNDERBOLT 2
(A10)
More flights by this aircraft type
Origin: KLSV Nellis AFB
United States
Destination: KLSV Nellis AFB
United States
More flights between these airports :: More routes between these airports
Route:
File this flight plan on PilotEdge
Remarks: A10 TACTICAL DEPARTURE (TAC WEST)
Altitude:
(Current/Filed)
8,500ft
Speed:
(Current/Filed)
250kts
Departed: 23-Jun-20 09:54 AM
Arrived: 23-Jun-20 10:43 AM
Distance/Time
Traveled:
1nm/0:49
Distance/Time
To Go:
Arrived

Flight Plot

Page will automatically refresh every two minutes.


Map Options




Map Legend


Flown Route
Filed Route
Departure Airport
Arrival Airport
Navaid (VOR, NDB)
Fix

Horizontal Profiles

Position Reports

Time Latitude Longitude Heading Altitude Ground
Speed
23-Jun-20 09:53 36.341960 -115.216136 301 3699ft 218kts
23-Jun-20 09:54 36.371828 -115.282176 294 3903ft 225kts
23-Jun-20 09:55 36.401444 -115.356144 298 4055ft 241kts
23-Jun-20 09:56 36.434028 -115.426106 311 4061ft 228kts
23-Jun-20 09:57 36.495688 -115.445505 351 5789ft 237kts
23-Jun-20 09:58 36.563939 -115.457256 351 7720ft 249kts
23-Jun-20 09:59 36.635728 -115.468848 352 9005ft 285kts
23-Jun-20 10:00 36.678109 -115.546824 281 8861ft 308kts
23-Jun-20 10:01 36.695601 -115.650160 281 8855ft 303kts
23-Jun-20 10:01 36.710088 -115.735896 281 8855ft 304kts
23-Jun-20 10:03 36.666231 -115.729397 102 8622ft 311kts
23-Jun-20 10:03 36.649506 -115.640931 102 8591ft 315kts
23-Jun-20 10:04 36.629562 -115.535061 89 8599ft 310kts
23-Jun-20 10:06 36.681896 -115.572419 283 8340ft 309kts
23-Jun-20 10:06 36.699526 -115.658969 283 8332ft 311kts
23-Jun-20 10:07 36.713447 -115.763389 231 8423ft 304kts
23-Jun-20 10:08 36.667443 -115.707391 102 8300ft 287kts
23-Jun-20 10:09 36.701391 -115.645488 1 6429ft 327kts
23-Jun-20 10:10 36.793002 -115.636951 13 5624ft 328kts
23-Jun-20 10:11 36.754582 -115.598729 185 5950ft 309kts
23-Jun-20 10:12 36.772617 -115.646943 5 6476ft 306kts
23-Jun-20 10:13 36.794569 -115.583864 161 6452ft 301kts
23-Jun-20 10:14 36.724810 -115.608269 274 6723ft 288kts
23-Jun-20 10:15 36.802111 -115.624910 45 5506ft 331kts
23-Jun-20 10:16 36.736893 -115.591534 185 6284ft 286kts
23-Jun-20 10:17 36.748987 -115.628505 359 6492ft 317kts
23-Jun-20 10:18 36.798853 -115.591459 149 6175ft 301kts
23-Jun-20 10:19 36.720551 -115.587895 182 8786ft 290kts
23-Jun-20 10:20 36.696325 -115.650254 299 11782ft 255kts
23-Jun-20 10:21 36.763841 -115.671280 18 12693ft 308kts
23-Jun-20 10:22 36.847386 -115.631441 20 12654ft 330kts
23-Jun-20 10:23 36.811262 -115.573926 189 13576ft 312kts
23-Jun-20 10:24 36.772226 -115.625500 3 13796ft 316kts
23-Jun-20 10:25 36.858507 -115.604210 66 12208ft 370kts
23-Jun-20 10:26 36.813698 -115.611353 223 12832ft 291kts
23-Jun-20 10:27 36.738581 -115.632481 181 10643ft 280kts
23-Jun-20 10:28 36.656356 -115.636270 181 10649ft 301kts
23-Jun-20 10:29 36.579039 -115.605773 147 10812ft 296kts
23-Jun-20 10:30 36.509084 -115.551530 147 9951ft 280kts
23-Jun-20 10:31 36.464228 -115.483181 132 8466ft 249kts
23-Jun-20 10:32 36.419854 -115.425050 132 8098ft 204kts
23-Jun-20 10:33 36.381190 -115.378491 138 7705ft 206kts
23-Jun-20 10:34 36.340929 -115.329695 133 6888ft 213kts
23-Jun-20 10:35 36.312134 -115.264849 108 6710ft 200kts
23-Jun-20 10:36 36.293639 -115.202226 109 5908ft 196kts
23-Jun-20 10:37 36.274796 -115.137871 107 5317ft 203kts
23-Jun-20 10:38 36.266263 -115.069234 61 4562ft 213kts
23-Jun-20 10:39 36.288968 -115.009360 113 3717ft 192kts
23-Jun-20 10:40 36.253467 -115.013176 220 2186ft 149kts
23-Jun-20 10:41 36.233056 -115.035296 215 1850ft 45kts
23-Jun-20 10:42 36.230733 -115.030717 89 1850ft 25kts
23-Jun-20 10:43 36.229863 -115.024979 85 1850ft 0kts

Navigation Log

Ident Type
Flight plan parsing failed, navigation log unavailable